Ladd AAF Airfield Fairbanks/Ft Wainwright US
ICAO: PAFB
IATA:
Category: Medium
Scheduled Services:

Elevation: 454 ft
TransAlt. 18000 ft.

Airport Communications:
FAIRBANKS APP:125.35
ATIS:134.25
CTAF:125
FAIRBANKS DEP:125.35
FAIRBANKS RDO:25.54
GND:121.7
MEDIVAC OPS:142.35
BASE OPS:118.9
PMSV METRO:128.8
TWR:125

PAFB Zoom In..

If Map Doesn't Load, Click Here

Runways:

(A) RW 07L length 8575 ft width 150 ft
---- / hdg 68

(B) RW 07R length 7280 ft width 75 ft
---- / hdg 68

(C) RW 25L length 7280 ft width 75 ft
---- / hdg 248

(D) RW 25R length 8575 ft width 150 ft
---- / hdg 248

Location; PAFB
Day. 19 / Time. 16.33 Zulu
* Altimeter: 30.20
* Temperature: 08° c. 46.4°f.
* Wind from: 060° Speed 04 kn.
Dewpoint: 08° c.
Visibility: 5 Statute Miles.
Clouds: Few 2400 ft.
Clouds: Broken 4700 ft.
Clouds: Overcast 14000 ft.
Conditions: Mist.

PAFB 191633Z 06004KT 5SM BR FEW024 BKN047 OVC140 08/08 A3020 RMK AO2A SLP233 SLP ESTMD $


Wind From 060°
Speed 04 kn.

 
 
jpsmedia.com for Web Design worldairports.se 2018   terms of use